Time;durP1;ratioP1;P1;durP2;ratioP2;P2;SDS_P1;SDS_P2;PMS_P1;PMS_P2;Temp;Humidity;BMP_temperature;BMP_pressure;BME280_temperature;BME280_humidity;BME280_pressure;Samples;Min_cycle;Max_cycle;Signal;HPM_P1;HPM_P2
2022/10/31 00:01:23;;;;;;;33.05;18.85;;;;;;;11.63;100.00;102058.34;5076239;28;20073;-77
2022/10/31 00:03:48;;;;;;;28.35;18.23;;;;;;;11.60;100.00;102060.22;5076025;28;20025;-82
2022/10/31 00:06:14;;;;;;;31.25;19.23;;;;;;;11.55;100.00;102067.38;5075597;28;20096;-80
2022/10/31 00:08:40;;;;;;;29.63;18.42;;;;;;;11.50;100.00;102059.81;5075899;28;20032;-73
2022/10/31 00:11:09;;;;;;;28.58;17.58;;;;;;;11.49;100.00;102065.88;5075685;28;20372;-75
2022/10/31 00:13:34;;;;;;;27.55;17.63;;;;;;;11.45;100.00;102069.53;5075834;28;20028;-79
2022/10/31 00:16:00;;;;;;;32.50;18.20;;;;;;;11.39;100.00;102065.47;5075792;28;20506;-78
2022/10/31 00:18:25;;;;;;;28.00;18.08;;;;;;;11.38;100.00;102071.56;5075826;28;20028;-74
2022/10/31 00:20:59;;;;;;;28.77;17.75;;;;;;;11.16;100.00;102050.19;5075693;28;20020;-77
2022/10/31 00:23:24;;;;;;;26.15;17.15;;;;;;;11.27;100.00;102068.66;5075140;28;20108;-75
2022/10/31 00:25:49;;;;;;;26.05;17.10;;;;;;;11.20;100.00;102070.66;5075456;28;20524;-75
2022/10/31 00:28:15;;;;;;;30.52;18.45;;;;;;;11.24;100.00;102070.53;5075369;28;20123;-74
2022/10/31 00:30:40;;;;;;;25.20;16.58;;;;;;;11.16;100.00;102071.72;5075385;28;20035;-75
2022/10/31 00:33:05;;;;;;;26.58;17.50;;;;;;;11.12;100.00;102067.63;5075648;28;20032;-72
2022/10/31 00:35:31;;;;;;;27.65;18.52;;;;;;;11.12;100.00;102075.38;5075389;28;20047;-78
2022/10/31 00:37:56;;;;;;;26.55;17.13;;;;;;;11.06;100.00;102073.06;5074022;28;20044;-77
2022/10/31 00:40:22;;;;;;;25.98;17.25;;;;;;;11.04;100.00;102074.88;5074830;28;20066;-86
2022/10/31 00:42:47;;;;;;;25.88;17.10;;;;;;;11.01;100.00;102074.16;5075372;28;20502;-85
2022/10/31 00:45:12;;;;;;;27.70;17.40;;;;;;;10.97;100.00;102070.03;5075386;28;20056;-90
2022/10/31 00:47:38;;;;;;;27.15;16.92;;;;;;;10.71;100.00;102020.34;5075020;28;20488;-91
2022/10/31 00:50:07;;;;;;;27.80;17.45;;;;;;;10.91;100.00;102058.22;5075040;28;20024;-87
2022/10/31 00:52:33;;;;;;;28.75;17.45;;;;;;;10.88;100.00;102061.78;5074822;28;20055;-87
2022/10/31 00:54:58;;;;;;;27.77;16.05;;;;;;;10.85;100.00;102064.50;5074936;28;20052;-92
2022/10/31 00:57:23;;;;;;;25.27;17.08;;;;;;;10.80;100.00;102060.44;5074983;28;20028;-91
2022/10/31 00:59:49;;;;;;;25.30;16.83;;;;;;;10.69;100.00;102047.16;5075068;28;20040;-90
2022/10/31 01:02:14;;;;;;;26.58;17.75;;;;;;;10.74;100.00;102063.31;5074922;28;20051;-91
2022/10/31 01:04:39;;;;;;;22.27;16.00;;;;;;;10.71;100.00;102066.84;5074931;28;20448;-91
2022/10/31 01:07:05;;;;;;;27.05;18.10;;;;;;;10.60;100.00;102054.41;5074457;28;20494;-89
2022/10/31 01:09:30;;;;;;;25.13;17.60;;;;;;;10.67;100.00;102067.91;5074614;28;20103;-89
2022/10/31 01:11:55;;;;;;;25.80;16.60;;;;;;;10.60;100.00;102053.56;5073284;28;20468;-91
2022/10/31 01:14:21;;;;;;;26.08;17.35;;;;;;;10.64;100.00;102060.28;5074652;28;20024;-91
2022/10/31 01:16:46;;;;;;;26.00;17.20;;;;;;;10.42;100.00;102029.41;5074737;28;20063;-91
2022/10/31 01:19:11;;;;;;;22.40;15.90;;;;;;;10.42;100.00;102037.16;5074499;28;20025;-88
2022/10/31 01:21:37;;;;;;;22.85;15.43;;;;;;;10.37;100.00;102035.66;5074573;28;20055;-91
2022/10/31 01:24:02;;;;;;;24.83;15.95;;;;;;;10.42;100.00;102036.28;5074355;28;20111;-92
2022/10/31 01:26:30;;;;;;;23.70;16.02;;;;;;;10.34;100.00;102029.72;5073203;28;20028;-92
2022/10/31 01:29:01;;;;;;;24.17;16.50;;;;;;;10.37;100.00;102039.06;5074325;28;20021;-88
2022/10/31 01:31:33;;;;;;;24.40;16.83;;;;;;;10.35;100.00;102040.88;5074463;28;20395;-87
2022/10/31 01:33:58;;;;;;;22.45;15.90;;;;;;;10.29;100.00;102035.97;5074276;28;20056;-89
2022/10/31 01:36:30;;;;;;;26.83;16.88;;;;;;;10.36;100.00;102052.06;5074321;28;20055;-87
2022/10/31 01:38:56;;;;;;;;;;;;;;;10.40;100.00;102046.69;5074399;28;20029;-88
2022/10/31 01:41:26;;;;;;;24.60;16.25;;;;;;;10.34;100.00;102052.97;5074096;28;19912;-88
2022/10/31 01:43:54;;;;;;;25.42;16.98;;;;;;;10.36;100.00;102050.31;5074335;28;20471;-89
2022/10/31 01:46:23;;;;;;;24.30;16.92;;;;;;;10.37;100.00;102056.31;5072647;28;20028;-77
2022/10/31 01:48:49;;;;;;;28.90;17.25;;;;;;;10.30;100.00;102048.81;5073948;28;20433;-74
2022/10/31 01:51:19;;;;;;;25.75;16.65;;;;;;;10.28;100.00;102044.63;5073468;28;20107;-75
2022/10/31 01:53:45;;;;;;;24.77;16.58;;;;;;;10.23;100.00;102054.31;5073807;28;20357;-77
2022/10/31 01:56:12;;;;;;;26.48;17.45;;;;;;;10.19;100.00;102048.41;5073790;28;20021;-74
2022/10/31 01:58:39;;;;;;;25.98;16.55;;;;;;;10.13;100.00;102047.78;5073821;28;20493;-74
2022/10/31 02:01:05;;;;;;;21.98;15.77;;;;;;;10.09;100.00;102051.41;5073803;28;20028;-79
2022/10/31 02:03:31;;;;;;;22.55;16.17;;;;;;;9.93;100.00;102034.00;5073725;28;20042;-76
2022/10/31 02:05:57;;;;;;;20.55;15.43;;;;;;;9.88;100.00;102037.66;5072732;28;20115;-74
2022/10/31 02:08:25;;;;;;;24.13;16.08;;;;;;;9.92;100.00;102045.19;5073552;28;20025;-75
2022/10/31 02:10:50;;;;;;;24.85;17.27;;;;;;;9.86;100.00;102037.72;5073457;28;20039;-74
2022/10/31 02:13:16;;;;;;;20.85;15.25;;;;;;;9.87;100.00;102054.88;5073815;28;20476;-74
2022/10/31 02:15:44;;;;;;;28.38;16.10;;;;;;;9.83;100.00;102045.56;5073672;28;20404;-82
2022/10/31 02:18:10;;;;;;;23.48;16.35;;;;;;;9.74;100.00;102025.34;5073597;28;20059;-75
2022/10/31 02:20:47;;;;;;;21.55;15.88;;;;;;;9.77;100.00;102035.53;5073663;28;20028;-75
2022/10/31 02:23:44;;;;;;;21.08;14.70;;;;;;;9.71;100.00;102040.91;5073433;28;20443;-75
2022/10/31 02:26:41;;;;;;;18.55;13.70;;;;;;;9.66;100.00;102037.69;5073598;28;20032;-79
2022/10/31 02:29:34;;;;;;;18.55;13.88;;;;;;;9.56;100.00;102036.38;5072347;28;20032;-92
2022/10/31 02:31:59;;;;;;;18.63;14.23;;;;;;;9.47;100.00;102041.00;5073487;28;20024;-75
2022/10/31 02:34:36;;;;;;;21.83;15.65;;;;;;;9.43;100.00;102031.69;5073555;28;20035;-92
2022/10/31 02:37:07;;;;;;;21.42;14.57;;;;;;;9.16;100.00;102007.00;5073487;28;20021;-83
2022/10/31 02:40:09;;;;;;;20.73;15.40;;;;;;;9.32;100.00;102039.00;5073278;28;20024;-91
2022/10/31 02:42:47;;;;;;;21.48;14.45;;;;;;;9.23;100.00;102048.81;5073392;28;20113;-91
2022/10/31 02:45:32;;;;;;;18.67;14.07;;;;;;;9.19;100.00;102042.94;5071997;28;20032;-92
2022/10/31 02:48:03;;;;;;;22.25;15.55;;;;;;;9.11;100.00;102037.22;5073667;28;20052;-91
2022/10/31 02:50:33;;;;;;;21.90;14.43;;;;;;;9.00;100.00;102024.75;5073329;28;20499;-92
2022/10/31 02:52:59;;;;;;;22.05;14.75;;;;;;;8.98;100.00;102021.41;5073375;28;20024;-91
2022/10/31 02:55:24;;;;;;;23.25;15.07;;;;;;;9.05;100.00;102032.31;5073118;28;20486;-90
2022/10/31 02:57:51;;;;;;;22.23;15.93;;;;;;;8.99;100.00;102032.53;5073249;28;20376;-86
2022/10/31 03:00:17;;;;;;;22.77;15.43;;;;;;;8.96;100.00;102032.66;5073181;28;20103;-91
2022/10/31 03:03:14;;;;;;;20.77;14.02;;;;;;;8.98;100.00;102044.59;5073978;28;20143;-87
2022/10/31 03:06:01;;;;;;;21.50;15.52;;;;;;;8.95;100.00;102041.25;5077358;28;20040;-91
2022/10/31 03:08:41;;;;;;;19.98;13.90;;;;;;;8.85;100.00;102028.75;5077084;28;20050;-90
2022/10/31 03:11:09;;;;;;;20.38;14.32;;;;;;;8.61;100.00;101998.72;5076984;28;20032;-74
2022/10/31 03:13:57;;;;;;;20.70;15.40;;;;;;;8.84;100.00;102039.09;5075517;28;20455;-88
2022/10/31 03:16:35;;;;;;;22.95;15.40;;;;;;;8.79;100.00;102041.00;5077170;28;20063;-91
2022/10/31 03:19:06;;;;;;;20.00;13.88;;;;;;;8.77;100.00;102043.63;5077015;28;20460;-87
2022/10/31 03:21:53;;;;;;;22.17;14.45;;;;;;;8.74;100.00;102048.88;5076983;28;20099;-91
2022/10/31 03:24:20;;;;;;;20.17;13.32;;;;;;;8.71;100.00;102038.69;5076699;28;20036;-92
2022/10/31 03:26:54;;;;;;;18.77;13.80;;;;;;;8.71;100.00;102041.25;5076330;28;20111;-92
2022/10/31 03:29:25;;;;;;;20.88;14.90;;;;;;;8.67;100.00;102044.84;5076763;28;20020;-91
2022/10/31 03:32:08;;;;;;;21.55;14.45;;;;;;;8.63;100.00;102038.97;5077094;28;20025;-92
2022/10/31 03:34:37;;;;;;;18.95;13.02;;;;;;;8.62;100.00;102047.59;5076840;28;20029;-91
2022/10/31 03:37:06;;;;;;;18.65;13.63;;;;;;;8.52;100.00;102029.94;5076825;28;20024;-89
2022/10/31 03:39:33;;;;;;;20.80;13.40;;;;;;;8.50;100.00;102034.31;5076580;28;20357;-92
2022/10/31 03:42:10;;;;;;;18.13;13.15;;;;;;;8.45;100.00;102025.88;5076540;28;20047;-88
2022/10/31 03:44:38;;;;;;;18.88;13.00;;;;;;;8.53;100.00;102039.34;5076446;28;20126;-91
2022/10/31 03:47:04;;;;;;;19.98;13.10;;;;;;;8.37;100.00;102017.63;5076427;28;20442;-91
2022/10/31 03:49:31;;;;;;;16.38;12.38;;;;;;;8.46;100.00;102041.31;5076275;28;20372;-91
2022/10/31 03:52:16;;;;;;;18.15;11.88;;;;;;;8.43;100.00;102041.38;5075050;28;20059;-89
2022/10/31 03:54:45;;;;;;;19.83;13.27;;;;;;;8.39;100.00;102034.69;5075938;28;20036;-88
2022/10/31 03:57:21;;;;;;;18.10;12.90;;;;;;;8.32;100.00;102028.03;5076284;28;20024;-90
2022/10/31 04:00:01;;;;;;;19.08;12.93;;;;;;;8.28;100.00;102026.47;5076181;28;20116;-91
2022/10/31 04:02:31;;;;;;;18.75;13.82;;;;;;;8.28;100.00;102037.59;5076375;28;20459;-91
2022/10/31 04:04:57;;;;;;;19.27;12.65;;;;;;;8.15;100.00;102015.72;5076170;28;20036;-91
2022/10/31 04:07:28;;;;;;;17.63;12.80;;;;;;;8.24;100.00;102036.00;5076094;28;20112;-88
2022/10/31 04:09:53;;;;;;;14.73;11.07;;;;;;;8.12;100.00;102015.00;5075941;28;20025;-89
2022/10/31 04:12:22;;;;;;;15.10;11.68;;;;;;;8.22;100.00;102032.66;5075765;28;20035;-88
2022/10/31 04:14:50;;;;;;;15.10;11.13;;;;;;;8.23;100.00;102041.19;5075068;28;20021;-90
2022/10/31 04:17:18;;;;;;;15.77;10.32;;;;;;;8.12;100.00;102028.69;5075781;28;20430;-88
2022/10/31 04:19:43;;;;;;;16.15;11.13;;;;;;;8.17;100.00;102036.28;5075959;28;20431;-91
2022/10/31 04:22:09;;;;;;;14.80;11.30;;;;;;;8.15;100.00;102032.91;5075575;28;20021;-92
2022/10/31 04:24:37;;;;;;;17.55;10.55;;;;;;;7.97;100.00;102009.50;5075864;28;20028;-75
2022/10/31 04:27:03;;;;;;;14.55;10.63;;;;;;;8.08;100.00;102037.44;5075445;28;20024;-90
2022/10/31 04:29:28;;;;;;;14.07;10.80;;;;;;;8.06;100.00;102039.19;5074290;28;20059;-90
2022/10/31 04:31:53;;;;;;;15.32;10.73;;;;;;;7.99;100.00;102030.00;5075901;28;20020;-90
2022/10/31 04:34:18;;;;;;;16.38;11.25;;;;;;;8.01;100.00;102041.09;5075525;28;20476;-74
2022/10/31 04:36:44;;;;;;;16.35;11.07;;;;;;;8.02;100.00;102037.63;5075494;28;20135;-89
2022/10/31 04:39:09;;;;;;;15.60;11.00;;;;;;;8.04;100.00;102043.53;5075649;28;20055;-88
2022/10/31 04:41:34;;;;;;;15.93;11.23;;;;;;;8.06;100.00;102046.91;5075319;28;20040;-88
2022/10/31 04:44:00;;;;;;;15.57;10.80;;;;;;;8.10;100.00;102048.50;5075212;28;20025;-75
2022/10/31 04:46:25;;;;;;;16.77;12.02;;;;;;;8.03;100.00;102031.56;5075153;28;20032;-77
2022/10/31 04:48:50;;;;;;;17.13;10.77;;;;;;;8.15;100.00;102044.03;5075101;28;20044;-88
2022/10/31 04:51:15;;;;;;;16.42;10.90;;;;;;;8.14;100.00;102034.63;5075480;28;20064;-89
2022/10/31 04:53:41;;;;;;;16.35;11.32;;;;;;;8.11;100.00;102029.59;5075249;28;20056;-90
2022/10/31 04:56:06;;;;;;;18.52;11.65;;;;;;;8.16;100.00;102032.88;5075037;28;20099;-75
2022/10/31 04:58:32;;;;;;;17.45;11.63;;;;;;;8.15;100.00;102027.75;5074892;28;20077;-75
2022/10/31 05:00:57;;;;;;;16.80;11.70;;;;;;;8.14;100.00;102026.91;5074827;28;20127;-90
2022/10/31 05:03:22;;;;;;;17.67;11.45;;;;;;;8.09;100.00;102033.97;5075093;28;20031;-89
2022/10/31 05:05:48;;;;;;;18.95;12.60;;;;;;;7.81;100.00;101982.59;5074817;28;20024;-75
2022/10/31 05:08:14;;;;;;;17.88;11.90;;;;;;;8.03;100.00;102019.56;5074870;28;20369;-75
2022/10/31 05:10:40;;;;;;;20.92;12.52;;;;;;;8.02;100.00;102012.72;5075006;28;20135;-81
2022/10/31 05:13:05;;;;;;;20.42;12.43;;;;;;;7.82;100.00;101971.41;5074637;28;20028;-91
2022/10/31 05:15:30;;;;;;;20.98;13.65;;;;;;;8.12;100.00;102013.25;5074568;28;20357;-88
2022/10/31 05:17:56;;;;;;;22.48;13.90;;;;;;;8.17;100.00;102020.84;5074557;28;20463;-86
2022/10/31 05:20:25;;;;;;;21.35;14.23;;;;;;;8.15;100.00;102014.88;5073357;28;20121;-75
2022/10/31 05:22:52;;;;;;;21.58;14.63;;;;;;;8.09;100.00;102004.81;5074678;28;20017;-89
2022/10/31 05:25:19;;;;;;;19.98;14.07;;;;;;;8.05;100.00;102004.06;5074503;28;20127;-87
2022/10/31 05:27:47;;;;;;;20.90;13.00;;;;;;;8.11;100.00;102014.16;5073128;28;20479;-76
2022/10/31 05:30:14;;;;;;;23.38;14.25;;;;;;;8.01;100.00;102011.06;5074293;28;20475;-75
2022/10/31 05:32:41;;;;;;;20.05;14.40;;;;;;;8.01;100.00;102003.34;5074253;28;20546;-74
2022/10/31 05:35:08;;;;;;;21.10;14.70;;;;;;;8.05;100.00;102007.47;5074712;28;20028;-76
2022/10/31 05:37:35;;;;;;;22.33;14.77;;;;;;;7.94;100.00;101989.00;5073079;28;20028;-74
2022/10/31 05:40:00;;;;;;;21.65;14.50;;;;;;;8.12;100.00;102012.44;5074265;28;20025;-75
2022/10/31 05:42:26;;;;;;;21.20;14.50;;;;;;;8.08;100.00;102009.13;5072841;28;20054;-75
2022/10/31 05:44:51;;;;;;;23.23;14.88;;;;;;;7.91;100.00;101981.38;5074111;28;20021;-80
2022/10/31 05:47:16;;;;;;;26.63;17.00;;;;;;;8.18;100.00;102007.09;5073926;28;20491;-76
2022/10/31 05:49:42;;;;;;;29.92;18.13;;;;;;;8.19;100.00;102004.44;5074021;28;20039;-75
2022/10/31 05:52:07;;;;;;;26.40;17.13;;;;;;;8.22;100.00;102000.94;5073966;28;20029;-78
2022/10/31 05:54:32;;;;;;;29.63;17.55;;;;;;;8.26;100.00;102007.66;5073961;28;20468;-81
2022/10/31 05:56:57;;;;;;;27.67;18.45;;;;;;;8.15;100.00;101974.56;5073776;28;20032;-75
2022/10/31 05:59:23;;;;;;;28.42;18.30;;;;;;;8.35;100.00;102002.19;5073833;28;20054;-74
2022/10/31 06:01:48;;;;;;;24.25;16.35;;;;;;;8.20;100.00;101982.97;5073547;28;20020;-74
2022/10/31 06:04:13;;;;;;;27.00;18.08;;;;;;;8.37;100.00;101997.03;5073805;28;20029;-78
2022/10/31 06:06:39;;;;;;;31.00;18.73;;;;;;;8.31;100.00;101986.00;5073843;28;20456;-76
2022/10/31 06:09:04;;;;;;;33.30;19.88;;;;;;;8.46;100.00;101994.13;5073819;28;20115;-77
2022/10/31 06:11:29;;;;;;;31.42;18.63;;;;;;;8.43;100.00;101992.47;5073827;28;20028;-75
2022/10/31 06:13:54;;;;;;;28.27;18.48;;;;;;;8.42;100.00;101995.97;5073401;28;20024;-79
2022/10/31 06:16:20;;;;;;;28.45;18.55;;;;;;;8.22;100.00;101970.88;5073309;28;20063;-75
2022/10/31 06:18:46;;;;;;;33.05;17.92;;;;;;;8.05;100.00;101945.72;5072209;28;20174;-81
2022/10/31 06:21:11;;;;;;;30.55;18.50;;;;;;;8.18;100.00;101960.78;5073530;28;20028;-74
2022/10/31 06:23:36;;;;;;;24.35;17.77;;;;;;;8.23;100.00;101969.16;5073459;28;20024;-77
2022/10/31 06:26:02;;;;;;;26.33;17.83;;;;;;;8.27;100.00;101987.03;5073502;28;20127;-78
2022/10/31 06:28:27;;;;;;;23.65;16.55;;;;;;;8.24;100.00;101991.41;5073027;28;20033;-75
2022/10/31 06:30:52;;;;;;;22.67;15.75;;;;;;;8.22;100.00;101996.63;5073448;28;20024;-78
2022/10/31 06:33:18;;;;;;;24.33;16.05;;;;;;;8.17;100.00;101990.81;5073560;28;20157;-92
2022/10/31 06:35:47;;;;;;;27.05;17.75;;;;;;;7.93;100.00;101960.75;5073505;28;20108;-87
2022/10/31 06:38:13;;;;;;;22.45;17.02;;;;;;;8.12;100.00;101995.25;5073130;28;20103;-89
2022/10/31 06:40:39;;;;;;;22.88;15.98;;;;;;;7.98;100.00;101976.88;5073423;28;20028;-76
2022/10/31 06:43:04;;;;;;;27.80;17.25;;;;;;;7.97;100.00;101980.34;5072099;28;20024;-75
2022/10/31 06:45:29;;;;;;;22.67;15.95;;;;;;;8.21;100.00;102012.13;5073032;28;20020;-91
2022/10/31 06:47:56;;;;;;;23.65;17.10;;;;;;;8.22;100.00;101995.78;5073061;28;20135;-88
2022/10/31 06:50:23;;;;;;;23.75;17.70;;;;;;;8.32;100.00;102000.56;5073389;28;20076;-90
2022/10/31 06:52:52;;;;;;;25.88;17.52;;;;;;;8.40;100.00;102000.31;5073203;28;20094;-76
2022/10/31 06:55:20;;;;;;;24.70;16.55;;;;;;;8.26;100.00;101967.34;5073104;28;20032;-77
2022/10/31 06:57:50;;;;;;;27.58;17.98;;;;;;;8.55;100.00;102002.38;5073271;28;20365;-88
2022/10/31 07:00:15;;;;;;;28.58;18.10;;;;;;;8.65;100.00;102002.00;5072832;28;20036;-88
2022/10/31 07:02:41;;;;;;;44.28;23.05;;;;;;;8.77;100.00;101999.84;5071742;28;20033;-87
2022/10/31 07:05:06;;;;;;;40.33;22.55;;;;;;;8.88;100.00;102002.03;5073051;28;20086;-75
2022/10/31 07:07:31;;;;;;;46.58;23.88;;;;;;;8.76;100.00;101959.53;5073059;28;20078;-90
2022/10/31 07:09:57;;;;;;;46.15;23.42;;;;;;;9.02;100.00;101996.34;5072125;28;20120;-90
2022/10/31 07:12:22;;;;;;;48.08;23.48;;;;;;;9.10;100.00;101997.75;5072801;28;20032;-84
2022/10/31 07:14:47;;;;;;;45.67;24.27;;;;;;;9.08;100.00;101985.81;5072787;28;20025;-88
2022/10/31 07:17:13;;;;;;;48.78;23.98;;;;;;;9.27;100.00;101997.09;5073118;28;20039;-75
2022/10/31 07:19:38;;;;;;;43.38;25.05;;;;;;;9.40;100.00;102006.03;5072796;28;20047;-86
2022/10/31 07:22:03;;;;;;;47.45;24.88;;;;;;;9.23;100.00;101956.03;5073108;28;20029;-88
2022/10/31 07:24:30;;;;;;;44.60;25.13;;;;;;;9.63;100.00;101992.22;5072741;28;20032;-85
2022/10/31 07:26:55;;;;;;;40.65;25.48;;;;;;;9.76;100.00;102000.31;5072725;28;20016;-85
2022/10/31 07:29:21;;;;;;;37.97;23.60;;;;;;;9.86;100.00;101999.03;5072628;28;20020;-74
2022/10/31 07:31:46;;;;;;;36.90;23.20;;;;;;;9.78;100.00;101978.69;5072680;28;20073;-74
2022/10/31 07:34:12;;;;;;;36.45;23.73;;;;;;;10.00;100.00;101999.28;5072799;28;20055;-84
2022/10/31 07:36:37;;;;;;;38.42;24.33;;;;;;;10.00;100.00;101983.78;5072876;28;20074;-88
2022/10/31 07:39:02;;;;;;;37.25;23.60;;;;;;;10.19;100.00;101999.34;5072680;28;20025;-88
2022/10/31 07:41:28;;;;;;;36.15;24.92;;;;;;;10.28;100.00;101999.00;5072696;28;20021;-87
2022/10/31 07:43:53;;;;;;;35.75;25.38;;;;;;;10.37;100.00;101997.75;5072862;28;20025;-86
2022/10/31 07:46:18;;;;;;;35.25;25.00;;;;;;;10.51;100.00;102002.31;5072605;28;20036;-75
2022/10/31 07:48:44;;;;;;;37.40;24.70;;;;;;;10.41;100.00;101976.03;5072351;28;20131;-78
2022/10/31 07:51:09;;;;;;;37.22;26.08;;;;;;;10.67;100.00;102002.47;5075791;28;20035;-87
2022/10/31 07:53:34;;;;;;;40.78;26.90;;;;;;;10.63;100.00;102005.22;5076353;28;20395;-88
2022/10/31 07:55:59;;;;;;;37.30;26.73;;;;;;;10.72;100.00;102014.31;5075154;28;20074;-84
2022/10/31 07:58:25;;;;;;;38.42;27.83;;;;;;;10.74;100.00;102011.66;5075060;28;20419;-74
2022/10/31 08:00:50;;;;;;;42.00;28.98;;;;;;;10.71;100.00;102012.59;5075962;28;20048;-74
2022/10/31 08:03:18;;;;;;;42.45;30.23;;;;;;;10.75;100.00;102016.75;5076057;28;20091;-79
2022/10/31 08:05:47;;;;;;;46.53;31.85;;;;;;;10.71;100.00;102002.25;5075937;28;20029;-82
2022/10/31 08:08:19;;;;;;;48.05;32.10;;;;;;;10.74;100.00;102002.16;5074442;28;20024;-73
2022/10/31 08:10:44;;;;;;;47.13;32.47;;;;;;;10.75;100.00;102001.22;5075919;28;20468;-87
2022/10/31 08:13:12;;;;;;;41.97;31.75;;;;;;;10.79;100.00;102000.19;5076058;28;20028;-81
2022/10/31 08:15:39;;;;;;;51.17;32.85;;;;;;;10.94;100.00;102014.16;5075879;28;20062;-81
2022/10/31 08:18:14;;;;;;;56.85;38.80;;;;;;;11.02;100.00;102017.25;5076187;28;20043;-85
2022/10/31 08:20:40;;;;;;;61.53;40.72;;;;;;;11.10;100.00;102012.53;5076295;28;20060;-89
2022/10/31 08:23:06;;;;;;;61.10;41.13;;;;;;;11.10;100.00;101981.50;5075849;28;20037;-89
2022/10/31 08:25:34;;;;;;;62.80;41.78;;;;;;;11.28;100.00;102004.84;5075995;28;20021;-93
2022/10/31 08:27:59;;;;;;;73.28;44.90;;;;;;;11.41;100.00;102011.13;5075889;28;20029;-90
2022/10/31 08:30:27;;;;;;;65.72;43.95;;;;;;;11.44;100.00;102001.47;5076434;28;20016;-92
2022/10/31 08:33:03;;;;;;;73.68;46.30;;;;;;;11.63;100.00;101998.81;5076741;28;20493;-91
2022/10/31 08:35:29;;;;;;;75.38;47.80;;;;;;;11.62;100.00;101976.47;5078639;28;20043;-91
2022/10/31 08:37:55;;;;;;;85.07;49.15;;;;;;;11.82;100.00;101988.44;5076359;28;20029;-93
2022/10/31 08:40:22;;;;;;;73.38;46.95;;;;;;;11.84;100.00;102002.13;5075713;28;20036;-92
2022/10/31 08:42:47;;;;;;;74.90;48.60;;;;;;;11.96;100.00;102006.69;5075554;28;20064;-91
2022/10/31 08:45:12;;;;;;;78.40;49.13;;;;;;;12.06;100.00;102000.16;5076369;28;20045;-91
2022/10/31 08:47:38;;;;;;;73.10;47.15;;;;;;;12.18;100.00;101992.66;5073272;28;20056;-86
2022/10/31 08:50:03;;;;;;;73.05;44.97;;;;;;;12.21;100.00;101979.59;5075469;28;20032;-86
2022/10/31 08:52:29;;;;;;;75.32;49.45;;;;;;;12.24;100.00;101946.59;5075435;28;20048;-86
2022/10/31 08:54:54;;;;;;;74.78;45.55;;;;;;;12.41;100.00;101950.88;5075276;28;20468;-84
2022/10/31 08:57:19;;;;;;;65.38;46.78;;;;;;;12.43;100.00;101943.03;5075006;28;20029;-87
2022/10/31 08:59:45;;;;;;;68.95;43.40;;;;;;;12.49;100.00;101950.50;5073941;28;20040;-79
2022/10/31 09:02:10;;;;;;;65.65;43.25;;;;;;;12.49;100.00;101945.31;5074600;28;20024;-87
2022/10/31 09:04:35;;;;;;;61.50;41.80;;;;;;;12.62;100.00;101941.97;5074524;28;20056;-85
2022/10/31 09:07:01;;;;;;;60.28;40.10;;;;;;;12.81;100.00;101961.72;5074620;28;20058;-85
2022/10/31 09:09:26;;;;;;;53.97;37.25;;;;;;;12.86;100.00;101968.31;5075196;28;20031;-87
2022/10/31 09:11:51;;;;;;;54.88;36.72;;;;;;;12.92;100.00;101969.75;5074870;28;20384;-87
2022/10/31 09:14:16;;;;;;;57.33;35.47;;;;;;;12.97;100.00;101966.88;5074864;28;20070;-85
2022/10/31 09:16:42;;;;;;;52.42;37.00;;;;;;;12.99;100.00;101970.25;5074653;28;20021;-75
2022/10/31 09:19:07;;;;;;;54.70;36.10;;;;;;;13.03;100.00;101972.56;5074659;28;20528;-86
2022/10/31 09:21:32;;;;;;;52.70;36.30;;;;;;;13.08;100.00;101970.59;5074703;28;20025;-86
2022/10/31 09:23:58;;;;;;;49.30;34.63;;;;;;;13.14;100.00;101971.97;5074642;28;20460;-86
2022/10/31 09:26:23;;;;;;;50.83;34.45;;;;;;;13.24;100.00;101974.94;5074338;28;20044;-80
2022/10/31 09:28:48;;;;;;;54.72;35.40;;;;;;;13.30;100.00;101974.59;5074114;28;20060;-75
2022/10/31 09:31:13;;;;;;;53.05;35.65;;;;;;;13.37;100.00;101962.94;5074403;28;20031;-86
2022/10/31 09:33:39;;;;;;;55.05;35.35;;;;;;;13.40;100.00;101944.63;5074202;28;20475;-86
2022/10/31 09:36:04;;;;;;;48.85;34.95;;;;;;;13.29;100.00;101921.88;5074305;28;20071;-83
2022/10/31 09:38:30;;;;;;;52.50;35.70;;;;;;;13.48;100.00;101926.88;5073194;28;20507;-85
2022/10/31 09:41:30;;;;;;;50.47;33.97;;;;;;;13.48;100.00;101919.91;5074456;28;20035;-82
2022/10/31 09:44:07;;;;;;;49.80;32.08;;;;;;;13.55;100.00;101919.53;5074233;28;20067;-74
2022/10/31 09:46:58;;;;;;;52.08;34.75;;;;;;;13.61;100.00;101914.00;5073695;28;20016;-86
2022/10/31 09:49:50;;;;;;;47.28;32.80;;;;;;;13.74;100.00;101910.59;5074236;28;20036;-85
2022/10/31 09:52:24;;;;;;;48.30;33.63;;;;;;;13.73;100.00;101903.72;5073948;28;20120;-81
2022/10/31 09:54:58;;;;;;;50.72;32.17;;;;;;;13.69;100.00;101911.78;5073862;28;20025;-82
2022/10/31 09:57:34;;;;;;;46.33;31.52;;;;;;;13.70;100.00;101908.28;5072764;28;20032;-83
2022/10/31 10:00:00;;;;;;;53.08;31.52;;;;;;;13.70;100.00;101919.50;5073350;28;20031;-83
2022/10/31 10:02:47;;;;;;;47.63;32.10;;;;;;;13.73;100.00;101908.91;5073454;28;20029;-72
2022/10/31 10:05:18;;;;;;;49.80;32.03;;;;;;;13.74;100.00;101901.97;5073830;28;20107;-74
2022/10/31 10:07:55;;;;;;;53.28;32.03;;;;;;;13.80;100.00;101903.38;5073645;28;20033;-80
2022/10/31 10:10:26;;;;;;;48.83;31.00;;;;;;;13.75;100.00;101901.88;5073877;28;20028;-84
2022/10/31 10:13:18;;;;;;;52.08;33.05;;;;;;;13.83;100.00;101903.19;5073075;28;20031;-85
2022/10/31 10:15:59;;;;;;;57.00;32.95;;;;;;;13.87;100.00;101876.97;5073640;28;20111;-83
2022/10/31 10:18:46;;;;;;;53.17;32.80;;;;;;;13.97;100.00;101875.47;5073981;28;20107;-85
2022/10/31 10:21:22;;;;;;;62.58;35.15;;;;;;;14.09;100.00;101873.06;5073673;28;20051;-84
2022/10/31 10:24:22;;;;;;;58.78;36.17;;;;;;;14.28;100.00;101853.66;5073530;28;20025;-85
2022/10/31 10:27:18;;;;;;;62.42;35.47;;;;;;;14.34;100.00;101852.41;5073151;28;20478;-85
2022/10/31 10:29:58;;;;;;;58.53;34.78;;;;;;;14.53;100.00;101860.75;5073565;28;20085;-85
2022/10/31 10:32:27;;;;;;;59.45;35.90;;;;;;;14.52;100.00;101833.09;5073462;28;20439;-80
2022/10/31 10:34:58;;;;;;;63.55;34.70;;;;;;;14.67;100.00;101853.88;5073128;28;20055;-76
2022/10/31 10:37:41;;;;;;;59.83;34.70;;;;;;;14.64;100.00;101834.91;5073612;28;20028;-75
2022/10/31 10:40:27;;;;;;;59.08;35.28;;;;;;;14.54;100.00;101822.59;5073472;28;20379;-79
2022/10/31 10:43:23;;;;;;;59.65;35.22;;;;;;;14.69;100.00;101854.59;5073223;28;20108;-80
2022/10/31 10:49:17;;;;;;;61.40;37.10;;;;;;;14.80;100.00;101847.78;5071967;28;20101;-84
2022/10/31 10:52:35;;;;;;;65.13;37.25;;;;;;;14.86;100.00;101843.94;5073207;28;20511;-81
2022/10/31 10:55:16;;;;;;;61.35;36.80;;;;;;;14.97;100.00;101862.28;5050731;28;20041;-76
2022/10/31 10:57:54;;;;;;;59.10;36.63;;;;;;;15.03;100.00;101858.44;5050824;28;20492;-75
2022/10/31 11:00:24;;;;;;;63.33;36.60;;;;;;;15.05;100.00;101846.19;5049626;28;20045;-85
2022/10/31 11:02:50;;;;;;;53.67;37.58;;;;;;;15.11;100.00;101835.38;5049114;28;20074;-83
2022/10/31 11:05:42;;;;;;;64.80;38.67;;;;;;;15.18;100.00;101827.06;5050614;28;20407;-85
2022/10/31 11:08:07;;;;;;;;;;;;;;;15.32;100.00;101822.69;5051043;28;20090;-74
2022/10/31 11:10:33;;;;;;;60.72;38.67;;;;;;;15.36;100.00;101817.19;5050404;28;19917;-86
2022/10/31 11:13:04;;;;;;;62.55;38.85;;;;;;;15.45;100.00;101820.94;5050862;28;20053;-84
2022/10/31 11:15:35;;;;;;;64.05;39.38;;;;;;;15.47;100.00;101827.72;5050882;28;20052;-84
2022/10/31 11:18:01;;;;;;;65.20;39.90;;;;;;;15.50;100.00;101831.88;5050816;28;20566;-85
2022/10/31 11:20:35;;;;;;;61.88;37.53;;;;;;;15.39;100.00;101806.56;5050527;28;20499;-86